Time;durP1;ratioP1;P1;durP2;ratioP2;P2;SDS_P1;SDS_P2;PMS_P1;PMS_P2;Temp;Humidity;BMP_temperature;BMP_pressure;BME280_temperature;BME280_humidity;BME280_pressure;Samples;Min_cycle;Max_cycle;Signal;HPM_P1;HPM_P2
2022/09/29 05:32:01;;;;;;;;;5.00;5.00;;;;;12.17;78.77;99869.78;5035511;23;51008;-67
2022/09/29 05:34:26;;;;;;;;;3.00;2.75;;;;;12.02;79.33;99832.94;4959154;28;49777;-73
2022/09/29 05:36:52;;;;;;;;;6.00;4.25;;;;;12.11;79.16;99853.13;4952713;28;49934;-76
2022/09/29 05:39:19;;;;;;;;;4.25;3.75;;;;;12.16;79.32;99869.75;4953280;28;52817;-76
2022/09/29 05:41:45;;;;;;;;;5.00;5.00;;;;;12.02;78.94;99841.72;4952374;28;49928;-80
2022/09/29 05:44:10;;;;;;;;;4.00;4.00;;;;;11.84;78.80;99825.03;4951327;28;50035;-78
2022/09/29 05:46:35;;;;;;;;;3.00;3.00;;;;;11.35;79.07;99751.34;4952766;28;50024;-78
2022/09/29 05:49:01;;;;;;;;;5.00;4.00;;;;;11.02;79.23;99691.75;4951024;28;51668;-73
2022/09/29 05:51:26;;;;;;;;;7.00;5.75;;;;;11.75;79.05;99824.13;4947246;28;49816;-76
2022/09/29 05:53:53;;;;;;;;;4.75;3.50;;;;;12.11;79.31;99874.16;4951156;28;50207;-73
2022/09/29 05:56:23;;;;;;;;;0.00;0.00;;;;;11.75;78.91;99813.59;4939189;28;49275;-76
2022/09/29 05:58:49;;;;;;;;;5.00;3.50;;;;;11.94;79.21;99853.97;4945519;28;51150;-72
2022/09/29 06:01:18;;;;;;;;;4.25;4.25;;;;;11.50;79.12;99779.41;4952257;28;49800;-75
2022/09/29 06:03:44;;;;;;;;;4.00;2.75;;;;;11.35;79.14;99762.75;4946051;28;49820;-71
2022/09/29 06:06:18;;;;;;;;;7.25;6.00;;;;;11.35;79.30;99762.75;4952467;28;50102;-71
2022/09/29 06:08:44;;;;;;;;;1.00;1.00;;;;;11.06;79.35;99730.28;4950818;28;51396;-77
2022/09/29 06:11:11;;;;;;;;;4.50;4.50;;;;;12.03;79.66;99882.03;4952288;28;49687;-73
2022/09/29 06:13:38;;;;;;;;;6.25;4.25;;;;;11.80;79.72;99834.69;4952386;28;49802;-75
2022/09/29 06:16:03;;;;;;;;;5.25;4.00;;;;;11.98;79.60;99871.53;4946124;28;49897;-74
2022/09/29 06:18:30;;;;;;;;;5.00;3.50;;;;;11.38;79.46;99789.00;4951880;28;50051;-74
2022/09/29 06:21:06;;;;;;;;;7.75;5.25;;;;;11.59;79.32;99824.13;4951603;28;51444;-72
2022/09/29 06:23:32;;;;;;;;;4.25;4.00;;;;;11.87;79.74;99857.50;4952339;28;50048;-78
2022/09/29 06:26:00;;;;;;;;;5.00;5.00;;;;;11.91;79.72;99864.50;4952082;28;49617;-71
2022/09/29 06:28:27;;;;;;;;;11.00;8.00;;;;;11.37;80.01;99787.25;4944822;28;50069;-77
2022/09/29 06:30:58;;;;;;;;;6.50;5.00;;;;;11.85;80.37;99851.34;4952166;28;49765;-79
2022/09/29 06:33:23;;;;;;;;;6.00;6.00;;;;;11.47;79.98;99789.03;4951732;28;49849;-77
2022/09/29 06:38:33;;;;;;;;;6.25;4.25;;;;;11.51;79.81;99800.44;4951344;28;49869;-74
2022/09/29 06:40:58;;;;;;;;;4.75;3.75;;;;;11.91;79.75;99871.53;4951634;28;49899;-75
2022/09/29 06:43:24;;;;;;;;;0.25;0.25;;;;;11.87;79.27;99862.75;4951900;28;49825;-76
2022/09/29 06:45:49;;;;;;;;;9.00;9.00;;;;;11.95;79.55;99879.41;4951972;28;49937;-77
2022/09/29 06:48:15;;;;;;;;;5.25;4.25;;;;;11.18;79.80;99754.81;4951478;28;50789;-72
2022/09/29 06:50:40;;;;;;;;;4.50;4.50;;;;;12.03;79.80;99888.19;4951773;28;49962;-76
2022/09/29 06:53:05;;;;;;;;;11.00;6.00;;;;;11.64;79.40;99822.34;4951720;28;49632;-75
2022/09/29 06:55:31;;;;;;;;;5.50;5.00;;;;;11.91;80.24;99867.13;4951774;28;49661;-72
2022/09/29 06:57:57;;;;;;;;;7.75;7.00;;;;;12.09;79.66;99892.59;4950992;28;58286;-72
2022/09/29 07:00:22;;;;;;;;;7.50;6.00;;;;;12.12;79.86;99895.22;4954736;28;49706;-71
2022/09/29 07:02:48;;;;;;;;;7.25;6.25;;;;;12.16;79.64;99898.69;4952604;28;49864;-75
2022/09/29 07:05:13;;;;;;;;;9.00;9.00;;;;;11.24;79.16;99746.09;4951976;28;49799;-76
2022/09/29 07:07:38;;;;;;;;;10.00;8.25;;;;;12.23;79.22;99911.00;4951474;28;50133;-71
2022/09/29 07:10:04;;;;;;;;;11.25;9.50;;;;;11.75;78.68;99821.50;4951287;28;49921;-72
2022/09/29 07:12:30;;;;;;;;;10.25;8.50;;;;;12.00;78.84;99875.03;4951262;28;49888;-72
2022/09/29 07:14:55;;;;;;;;;9.00;7.50;;;;;12.17;78.70;99916.28;4951596;28;49940;-74
2022/09/29 07:17:20;;;;;;;;;10.50;8.50;;;;;12.17;78.34;99927.69;4951303;28;51164;-71
2022/09/29 07:19:46;;;;;;;;;11.25;8.75;;;;;12.20;78.40;99922.41;4951069;28;51395;-72
2022/09/29 07:22:11;;;;;;;;;8.75;8.75;;;;;12.10;78.30;99888.19;4951459;28;49910;-72
2022/09/29 07:24:36;;;;;;;;;8.25;8.00;;;;;12.20;78.00;99906.63;4951586;28;49756;-76
2022/09/29 07:27:02;;;;;;;;;8.00;5.00;;;;;11.86;78.11;99844.31;4951169;28;50692;-71
2022/09/29 07:29:31;;;;;;;;;5.00;5.00;;;;;11.53;77.88;99768.91;4951265;28;49792;-71
2022/09/29 07:31:57;;;;;;;;;6.50;5.25;;;;;12.22;77.69;99860.13;4950657;28;49889;-69
2022/09/29 07:34:23;;;;;;;;;10.75;8.75;;;;;12.70;76.54;99923.28;4951212;28;49976;-69
2022/09/29 07:36:49;;;;;;;;;4.50;4.50;;;;;12.78;76.44;99921.50;4950907;28;50409;-70
2022/09/29 07:39:14;;;;;;;;;7.25;7.25;;;;;12.38;76.61;99834.69;4954231;28;49774;-70
2022/09/29 07:41:40;;;;;;;;;7.75;7.75;;;;;12.79;75.38;99889.91;4954651;28;49927;-76
2022/09/29 07:44:05;;;;;;;;;9.75;9.00;;;;;13.04;75.64;99926.72;4954778;28;50030;-69
2022/09/29 07:46:31;;;;;;;;;8.25;8.25;;;;;12.51;75.46;99836.41;4954288;28;50541;-70
2022/09/29 07:48:57;;;;;;;;;7.75;7.75;;;;;13.15;74.90;99924.94;4952017;28;49762;-71
2022/09/29 07:51:22;;;;;;;;;7.75;6.50;;;;;13.27;75.08;99930.19;4953790;28;50040;-69
2022/09/29 07:53:48;;;;;;;;;6.50;6.50;;;;;12.52;74.20;99801.31;4952750;28;49974;-78
2022/09/29 07:56:19;;;;;;;;;7.00;6.50;;;;;13.37;74.00;99937.19;4953335;28;50386;-69
2022/09/29 07:58:46;;;;;;;;;9.25;7.00;;;;;13.28;73.53;99931.06;4953660;28;49613;-73
2022/09/29 08:01:14;;;;;;;;;9.00;9.00;;;;;13.34;73.33;99938.97;4953914;28;49713;-75
2022/09/29 08:03:41;;;;;;;;;8.75;8.00;;;;;13.38;73.03;99960.03;4952998;28;49813;-69
2022/09/29 08:06:07;;;;;;;;;10.75;7.75;;;;;12.43;73.55;99787.28;4952073;28;50823;-74
2022/09/29 08:08:37;;;;;;;;;10.50;9.00;;;;;13.46;73.34;99946.81;4952093;28;50025;-77
2022/09/29 08:11:14;;;;;;;;;8.00;8.00;;;;;13.55;73.53;99959.09;4951852;28;50040;-68
2022/09/29 08:13:40;;;;;;;;;9.00;8.25;;;;;13.43;73.36;99936.31;4952237;28;50072;-75
2022/09/29 08:16:10;;;;;;;;;10.25;8.00;;;;;13.30;72.37;99917.00;4952282;28;49862;-75
2022/09/29 08:18:35;;;;;;;;;10.00;8.50;;;;;13.30;71.42;99926.66;4952978;28;49684;-79
2022/09/29 08:21:01;;;;;;;;;10.50;9.00;;;;;12.70;72.07;99839.00;4954027;28;50098;-76
2022/09/29 08:23:27;;;;;;;;;9.75;9.75;;;;;12.90;72.22;99853.88;4954364;28;49768;-73
2022/09/29 08:26:05;;;;;;;;;13.00;13.00;;;;;13.50;71.96;99950.31;4951976;28;52254;-72
2022/09/29 08:28:32;;;;;;;;;11.75;10.25;;;;;13.06;72.10;99883.69;4953764;28;49946;-69
2022/09/29 08:31:04;;;;;;;;;12.75;10.75;;;;;13.20;72.03;99904.75;4953465;28;49622;-74
2022/09/29 08:33:31;;;;;;;;;8.50;8.50;;;;;13.14;71.81;99900.34;4947841;28;50339;-72
2022/09/29 08:35:57;;;;;;;;;13.00;11.75;;;;;13.65;72.16;99976.63;4953420;28;49850;-68
2022/09/29 08:38:24;;;;;;;;;12.00;11.00;;;;;13.42;71.81;99950.38;4947313;28;50034;-69
2022/09/29 08:40:50;;;;;;;;;11.00;10.75;;;;;13.34;72.13;99937.22;4951958;28;49929;-75
2022/09/29 08:43:25;;;;;;;;;12.00;12.00;;;;;13.60;71.82;99978.41;4955569;28;50098;-72
2022/09/29 08:46:20;;;;;;;;;11.25;10.50;;;;;13.26;71.39;99930.22;4950740;28;50429;-72
2022/09/29 08:48:46;;;;;;;;;11.00;10.00;;;;;13.63;71.39;99984.56;4951427;28;49778;-72
2022/09/29 08:51:22;;;;;;;;;10.75;10.25;;;;;13.35;70.40;99956.53;4951849;28;50004;-72
2022/09/29 08:53:51;;;;;;;;;7.00;6.00;;;;;13.72;70.93;99988.94;4952859;28;50075;-73
2022/09/29 08:56:17;;;;;;;;;10.75;9.00;;;;;13.70;70.81;99972.19;4952978;28;50778;-71
2022/09/29 08:58:43;;;;;;;;;11.00;11.00;;;;;13.94;70.52;99998.47;4953006;28;49804;-72
2022/09/29 09:01:36;;;;;;;;;7.25;6.75;;;;;14.16;68.93;100003.63;4953056;28;49818;-74
2022/09/29 09:04:04;;;;;;;;;11.00;11.00;;;;;14.42;67.80;100001.72;4953294;28;49881;-68
2022/09/29 09:06:42;;;;;;;;;8.00;8.00;;;;;14.58;66.96;99997.25;4953807;28;49906;-68
2022/09/29 09:09:27;;;;;;;;;11.00;11.00;;;;;14.82;67.60;99994.38;4953165;28;49959;-68
2022/09/29 09:12:17;;;;;;;;;12.25;7.75;;;;;15.20;65.38;99998.44;4951428;28;49902;-75
2022/09/29 09:15:08;;;;;;;;;6.25;6.00;;;;;15.61;64.96;100000.66;4947788;28;49604;-71
2022/09/29 09:17:51;;;;;;;;;4.75;4.00;;;;;15.96;63.62;99996.69;4953027;28;49713;-69
2022/09/29 09:20:31;;;;;;;;;7.75;6.75;;;;;16.12;62.28;99995.59;4952889;28;49798;-74
2022/09/29 09:23:00;;;;;;;;;6.50;6.50;;;;;15.69;62.33;99931.78;4952874;28;49880;-72
2022/09/29 09:25:25;;;;;;;;;6.50;6.50;;;;;16.16;62.01;99997.31;4953202;28;49769;-73
2022/09/29 09:28:02;;;;;;;;;9.50;8.75;;;;;15.87;61.25;99970.34;4952740;28;50853;-69
2022/09/29 09:30:34;;;;;;;;;10.75;9.75;;;;;15.84;60.87;99981.88;4952995;28;49962;-73
2022/09/29 09:33:04;;;;;;;;;10.50;10.25;;;;;15.78;61.52;100000.47;4952321;28;49957;-73
2022/09/29 09:35:40;;;;;;;;;9.25;9.00;;;;;15.72;62.47;100000.53;4952693;28;49789;-71
2022/09/29 09:38:17;;;;;;;;;10.25;10.25;;;;;15.39;61.77;99970.91;4952570;28;51101;-69
2022/09/29 09:40:49;;;;;;;;;10.50;9.50;;;;;15.41;61.97;99998.22;4952605;28;49794;-71
2022/09/29 09:43:43;;;;;;;;;14.00;12.25;;;;;15.09;62.33;99966.81;4952597;28;49971;-69
2022/09/29 09:46:46;;;;;;;;;14.25;11.00;;;;;15.14;62.93;99991.44;4957311;28;49947;-74
2022/09/29 09:49:39;;;;;;;;;12.25;12.00;;;;;15.10;62.33;100008.22;4950954;28;50959;-72
2022/09/29 09:52:21;;;;;;;;;6.00;6.00;;;;;14.75;62.23;99991.81;4952485;28;49744;-71
2022/09/29 09:54:53;;;;;;;;;12.00;10.00;;;;;14.60;62.59;99962.00;4952540;28;49808;-69
2022/09/29 09:57:39;;;;;;;;;7.50;7.25;;;;;14.34;61.78;99924.31;4952774;28;50203;-73
2022/09/29 10:00:12;;;;;;;;;5.25;4.25;;;;;14.93;61.21;100015.44;4952077;28;50715;-70
2022/09/29 10:02:45;;;;;;;;;3.50;3.50;;;;;14.85;59.87;100007.56;4952442;28;50043;-69
2022/09/29 10:05:16;;;;;;;;;1.00;1.00;;;;;14.95;57.15;100012.75;4952509;28;50124;-67
2022/09/29 10:07:43;;;;;;;;;4.00;3.25;;;;;14.99;57.98;100011.88;4952545;28;49804;-70
2022/09/29 10:10:21;;;;;;;;;3.25;2.25;;;;;15.22;58.12;100022.22;4951150;28;50306;-70
2022/09/29 10:13:08;;;;;;;;;7.00;6.00;;;;;15.34;58.66;100019.44;4951290;28;49867;-72
2022/09/29 10:15:53;;;;;;;;;5.50;5.50;;;;;15.42;59.46;100009.66;4951027;28;49756;-73
2022/09/29 10:18:22;;;;;;;;;5.00;5.00;;;;;15.17;58.71;99942.97;4951287;28;49928;-71
2022/09/29 10:20:48;;;;;;;;;8.25;6.00;;;;;15.47;58.49;99994.63;4951034;28;50024;-72
2022/09/29 10:23:27;;;;;;;;;6.50;5.50;;;;;15.34;58.92;99934.81;4951225;28;49766;-72
2022/09/29 10:26:11;;;;;;;;;7.75;6.00;;;;;15.96;59.13;100028.47;4952145;28;49794;-69
2022/09/29 10:29:00;;;;;;;;;6.25;4.50;;;;;15.88;58.99;99988.84;4952034;28;49876;-71
2022/09/29 10:31:35;;;;;;;;;6.00;6.00;;;;;16.08;57.73;99978.00;4951659;28;50750;-69
2022/09/29 10:34:09;;;;;;;;;4.50;3.50;;;;;16.45;55.17;100020.72;4951932;28;49722;-69
2022/09/29 10:36:51;;;;;;;;;1.50;0.00;;;;;16.59;55.09;100002.81;4951869;28;49682;-69
2022/09/29 10:39:41;;;;;;;;;3.00;2.00;;;;;16.87;52.34;100015.66;4951934;28;49768;-70
2022/09/29 10:42:23;;;;;;;;;2.00;2.00;;;;;17.09;53.38;100014.41;4947932;28;49849;-68
2022/09/29 10:44:59;;;;;;;;;3.50;3.50;;;;;16.91;52.77;99990.88;4951714;28;49806;-71
2022/09/29 10:47:25;;;;;;;;;0.25;0.00;;;;;16.64;54.50;99957.72;4951588;28;49832;-70
2022/09/29 10:50:18;;;;;;;;;6.00;4.00;;;;;15.81;54.91;99846.91;4951762;28;49939;-72
2022/09/29 10:52:49;;;;;;;;;2.25;2.25;;;;;16.59;54.61;100009.91;4951362;28;50938;-71
2022/09/29 10:55:18;;;;;;;;;4.50;3.50;;;;;16.41;55.82;99987.25;4951444;28;49801;-74
2022/09/29 10:57:45;;;;;;;;;3.50;3.50;;;;;16.19;55.05;99977.84;4952035;28;49935;-73
2022/09/29 11:00:28;;;;;;;;;4.50;4.00;;;;;16.22;56.24;100036.94;4951604;28;49908;-72
2022/09/29 11:03:03;;;;;;;;;13.00;9.00;;;;;15.86;58.65;100003.00;4951296;28;51104;-68
2022/09/29 11:05:29;;;;;;;;;18.00;17.00;;;;;15.89;61.04;100042.66;4951484;28;49763;-73
2022/09/29 11:07:55;;;;;;;;;21.25;17.00;;;;;15.69;61.85;100050.84;4951118;28;49917;-72
2022/09/29 11:10:35;;;;;;;;;14.00;14.00;;;;;15.51;62.79;100051.00;4951564;28;49809;-69
2022/09/29 11:13:19;;;;;;;;;18.25;15.00;;;;;15.27;65.03;100052.16;4950343;28;50417;-73
2022/09/29 11:15:44;;;;;;;;;15.25;14.75;;;;;14.76;65.91;100004.13;4949737;28;49857;-73
2022/09/29 11:18:22;;;;;;;;;19.25;15.00;;;;;14.76;67.35;100035.81;4951247;28;50135;-73
2022/09/29 11:20:55;;;;;;;;;15.50;12.25;;;;;14.04;67.86;99951.81;4951419;28;49872;-72
2022/09/29 11:23:31;;;;;;;;;14.50;13.50;;;;;13.79;70.33;99951.06;4951042;28;50949;-69
2022/09/29 11:26:15;;;;;;;;;11.75;10.00;;;;;14.41;70.34;100084.47;4951036;28;49734;-69
2022/09/29 11:29:14;;;;;;;;;15.75;11.75;;;;;14.26;71.74;100088.03;4951268;28;49670;-73
2022/09/29 11:32:13;;;;;;;;;8.50;7.75;;;;;14.19;71.75;100089.00;4951323;28;49867;-72
2022/09/29 11:34:56;;;;;;;;;13.00;13.00;;;;;14.16;72.53;100098.66;4950222;28;50403;-73
2022/09/29 11:37:30;;;;;;;;;12.25;10.00;;;;;14.10;72.12;100090.78;4951109;28;49656;-68
2022/09/29 11:40:27;;;;;;;;;11.00;11.00;;;;;13.97;72.29;100071.47;4951057;28;49913;-67
2022/09/29 11:43:00;;;;;;;;;13.50;11.50;;;;;14.08;72.02;100103.09;4951239;28;49695;-71
2022/09/29 11:45:42;;;;;;;;;16.25;15.25;;;;;13.95;73.06;100094.34;4946731;28;49912;-70
2022/09/29 11:48:34;;;;;;;;;15.25;13.25;;;;;14.18;73.75;100102.16;4950588;28;49932;-71
2022/09/29 11:51:40;;;;;;;;;10.75;10.75;;;;;13.95;72.86;100078.53;4951036;28;49948;-69
2022/09/29 11:54:47;;;;;;;;;11.75;11.75;;;;;14.19;72.27;100090.75;4951246;28;49681;-72
2022/09/29 11:57:28;;;;;;;;;13.00;12.00;;;;;14.41;74.15;100110.00;4944998;28;50061;-69
2022/09/29 12:00:06;;;;;;;;;16.50;14.75;;;;;14.37;73.88;100081.84;4950612;28;50114;-68
2022/09/29 12:02:35;;;;;;;;;16.75;14.50;;;;;14.70;75.80;100105.47;4950516;28;49911;-76
2022/09/29 12:05:24;;;;;;;;;21.00;14.50;;;;;14.86;73.80;100120.31;4950749;28;49691;-76
2022/09/29 12:08:12;;;;;;;;;18.25;16.25;;;;;14.97;74.30;100108.81;4950648;28;49880;-71
2022/09/29 12:10:49;;;;;;;;;14.75;13.00;;;;;15.06;73.65;100114.91;4944037;28;49859;-71
2022/09/29 12:13:28;;;;;;;;;13.75;13.75;;;;;14.07;73.53;99935.94;4950751;28;49809;-70
2022/09/29 12:16:02;;;;;;;;;11.50;9.75;;;;;15.22;71.49;100110.34;4950725;28;49785;-73
2022/09/29 12:18:38;;;;;;;;;13.50;11.50;;;;;15.31;71.35;100118.19;4950338;28;49811;-72
2022/09/29 12:21:07;;;;;;;;;11.75;11.00;;;;;14.60;71.75;99983.13;4950457;28;49732;-70
2022/09/29 12:23:38;;;;;;;;;9.00;8.50;;;;;15.36;71.78;100103.19;4954648;28;49773;-75
2022/09/29 12:26:08;;;;;;;;;5.00;5.00;;;;;15.04;70.66;100047.03;4955688;28;49705;-74
2022/09/29 12:28:45;;;;;;;;;5.00;5.00;;;;;15.27;69.62;100087.41;4953569;28;49755;-72
2022/09/29 12:31:36;;;;;;;;;6.50;5.25;;;;;15.50;68.03;100118.91;4953899;28;49908;-73
2022/09/29 12:34:18;;;;;;;;;6.00;6.00;;;;;14.95;69.13;100016.28;4953652;28;49916;-73
2022/09/29 12:37:16;;;;;;;;;48.75;37.25;;;;;15.50;68.53;100118.03;4953616;28;49835;-72
2022/09/29 12:40:03;;;;;;;;;6.25;5.25;;;;;15.54;69.11;100114.44;4953382;28;49895;-71
2022/09/29 12:42:51;;;;;;;;;5.00;5.00;;;;;15.56;67.27;100116.22;4953257;28;49799;-71
2022/09/29 12:45:52;;;;;;;;;7.75;5.50;;;;;15.73;69.37;100116.09;4947539;28;49973;-74
2022/09/29 12:48:57;;;;;;;;;4.50;4.50;;;;;15.08;67.94;99973.00;4953814;28;49776;-71
2022/09/29 12:51:52;;;;;;;;;7.00;5.00;;;;;15.95;66.93;100119.38;4954086;28;49843;-71
2022/09/29 12:54:21;;;;;;;;;6.00;6.00;;;;;15.75;67.83;100074.59;4938252;28;49898;-69
2022/09/29 12:56:46;;;;;;;;;9.50;8.25;;;;;16.07;66.89;100118.34;4947123;28;49915;-69
2022/09/29 12:59:23;;;;;;;;;11.00;8.75;;;;;16.06;67.05;100124.53;4953392;28;49967;-73
2022/09/29 13:01:55;;;;;;;;;10.00;7.25;;;;;15.59;67.96;100039.44;4957059;28;50013;-73
2022/09/29 13:04:59;;;;;;;;;12.00;6.00;;;;;16.00;67.37;100121.06;4953446;28;49688;-73
2022/09/29 13:07:43;;;;;;;;;7.00;5.00;;;;;15.92;66.35;100109.69;4953018;28;49940;-73
2022/09/29 13:10:39;;;;;;;;;8.00;7.00;;;;;15.80;67.40;100107.16;4953361;28;49855;-75
2022/09/29 13:13:16;;;;;;;;;6.00;6.00;;;;;15.67;67.32;100097.63;4952780;28;51091;-69
2022/09/29 13:16:03;;;;;;;;;3.00;3.00;;;;;15.67;65.04;100109.06;4952174;28;50068;-73
2022/09/29 13:18:54;;;;;;;;;9.75;9.75;;;;;15.37;65.09;100094.34;4948940;28;49688;-73
2022/09/29 13:21:43;;;;;;;;;5.00;5.00;;;;;15.31;65.43;100112.91;4953326;28;49810;-71
2022/09/29 13:24:43;;;;;;;;;8.50;8.50;;;;;14.87;65.13;100077.16;4933445;28;50451;-69
2022/09/29 13:27:29;;;;;;;;;8.25;8.25;;;;;15.03;66.28;100112.25;4953008;28;49763;-72
2022/09/29 13:30:01;;;;;;;;;7.25;7.00;;;;;14.70;65.50;100057.03;4948512;28;49782;-68
2022/09/29 13:32:29;;;;;;;;;7.50;7.50;;;;;15.01;66.68;100100.81;4951538;28;50184;-71
2022/09/29 13:34:58;;;;;;;;;8.25;8.25;;;;;14.90;66.62;100084.19;4952091;28;49741;-72
2022/09/29 13:37:41;;;;;;;;;9.00;9.00;;;;;15.07;68.24;100105.19;4953365;28;49780;-71
2022/09/29 13:40:15;;;;;;;;;11.00;11.00;;;;;15.01;68.46;100089.38;4952875;28;49882;-71
2022/09/29 13:42:45;;;;;;;;;11.25;10.50;;;;;14.96;67.42;100088.53;4952913;28;49746;-72
2022/09/29 13:45:20;;;;;;;;;7.75;7.00;;;;;15.16;68.22;100118.34;4952477;28;49851;-73
2022/09/29 13:47:56;;;;;;;;;9.50;9.50;;;;;15.16;67.96;100124.50;4946377;28;49791;-73
2022/09/29 13:50:46;;;;;;;;;8.50;7.00;;;;;15.13;67.47;100129.78;4952519;28;49745;-74
2022/09/29 13:53:21;;;;;;;;;12.25;9.50;;;;;15.15;66.38;100128.03;4952519;28;49940;-71
2022/09/29 13:55:52;;;;;;;;;10.00;10.00;;;;;15.22;67.33;100130.63;4954197;28;50701;-73
2022/09/29 13:58:24;;;;;;;;;8.50;8.00;;;;;15.18;63.65;100129.78;4957859;28;50056;-68
2022/09/29 14:00:52;;;;;;;;;7.50;7.50;;;;;15.10;63.29;100132.47;4950738;28;49819;-69
2022/09/29 14:03:31;;;;;;;;;7.00;7.00;;;;;15.13;64.62;100129.78;4952679;28;49927;-71
2022/09/29 14:06:22;;;;;;;;;8.75;7.00;;;;;15.11;64.38;100122.78;4952267;28;50885;-69
2022/09/29 14:08:57;;;;;;;;;7.25;6.00;;;;;15.18;64.41;100130.66;4951845;28;50034;-68
2022/09/29 14:11:33;;;;;;;;;8.50;8.00;;;;;15.18;64.91;100124.50;4952103;28;49749;-71
2022/09/29 14:14:07;;;;;;;;;8.25;8.25;;;;;15.24;62.81;100142.06;4952251;28;50165;-69
2022/09/29 14:16:52;;;;;;;;;9.25;9.25;;;;;15.29;63.54;100142.91;4945752;28;49743;-69
2022/09/29 14:19:41;;;;;;;;;8.00;7.75;;;;;15.34;64.71;100152.53;4957180;28;49886;-68
2022/09/29 14:22:28;;;;;;;;;7.50;7.00;;;;;15.32;61.57;100141.09;4952078;28;50395;-70
2022/09/29 14:24:54;;;;;;;;;7.00;7.00;;;;;15.32;62.45;100142.88;4946864;28;49655;-70
2022/09/29 14:27:57;;;;;;;;;6.25;6.00;;;;;14.95;59.64;100095.56;4953443;28;50372;-74
2022/09/29 14:30:33;;;;;;;;;3.50;3.50;;;;;15.20;59.49;100143.84;4950760;28;49927;-75
2022/09/29 14:33:11;;;;;;;;;6.25;6.25;;;;;15.20;59.04;100141.22;4966939;28;49633;-70
2022/09/29 14:35:39;;;;;;;;;5.75;5.00;;;;;14.98;59.42;100122.00;4966421;28;49536;-70
2022/09/29 14:38:08;;;;;;;;;4.50;4.00;;;;;14.96;58.89;100102.66;4965606;28;49798;-73
2022/09/29 14:40:34;;;;;;;;;7.25;5.50;;;;;15.26;60.69;100145.59;4958904;28;49738;-77
2022/09/29 14:43:16;;;;;;;;;7.00;7.00;;;;;15.32;60.15;100149.03;4959524;28;49733;-76
2022/09/29 14:52:18;;;;;;;;;5.25;2.00;;;;;15.38;59.75;100146.34;4950329;28;50161;-73
2022/09/29 14:54:58;;;;;;;;;6.75;5.50;;;;;15.40;58.80;100147.22;4914951;28;50096;-70
2022/09/29 14:57:43;;;;;;;;;7.00;5.00;;;;;15.44;59.18;100143.66;4962704;28;49512;-70
2022/09/29 15:00:18;;;;;;;;;4.25;4.25;;;;;14.96;58.31;100057.72;4967570;28;52196;-75
2022/09/29 15:02:50;;;;;;;;;6.25;4.50;;;;;14.70;58.13;100015.63;4966087;28;49406;-73
2022/09/29 15:05:30;;;;;;;;;3.25;3.00;;;;;15.51;59.67;100141.81;4967485;28;49505;-73
2022/09/29 15:07:56;;;;;;;;;4.00;4.00;;;;;15.38;59.12;100119.03;4966756;28;49476;-74
2022/09/29 15:10:26;;;;;;;;;3.00;2.00;;;;;15.58;58.69;100145.28;4968271;28;50101;-74
2022/09/29 15:12:52;;;;;;;;;5.00;4.00;;;;;15.31;58.21;100104.97;4966476;28;49355;-71
2022/09/29 15:15:34;;;;;;;;;2.50;2.00;;;;;14.69;58.38;99992.75;4966959;28;49630;-73
2022/09/29 15:18:18;;;;;;;;;2.00;2.00;;;;;15.13;57.20;100081.34;4966355;28;49550;-70
2022/09/29 15:20:59;;;;;;;;;1.75;1.50;;;;;15.59;56.96;100145.28;4968878;28;50220;-73
2022/09/29 15:23:33;;;;;;;;;2.25;2.25;;;;;15.61;56.84;100153.22;4968999;28;49602;-74
2022/09/29 15:25:59;;;;;;;;;2.00;2.00;;;;;15.65;57.24;100147.03;4967459;28;49787;-72
2022/09/29 15:28:35;;;;;;;;;3.00;3.00;;;;;15.39;56.21;100107.56;4969121;28;49546;-71
2022/09/29 15:31:11;;;;;;;;;2.00;2.00;;;;;15.52;57.93;100122.41;4966767;28;50235;-71
2022/09/29 15:33:41;;;;;;;;;2.00;1.25;;;;;15.16;56.07;100023.16;4963454;28;49744;-72
2022/09/29 15:36:20;;;;;;;;;3.75;2.00;;;;;16.14;56.64;100154.47;4969397;28;49365;-72
2022/09/29 15:38:49;;;;;;;;;3.25;3.00;;;;;16.36;55.24;100157.72;4968846;28;49576;-73
2022/09/29 15:41:18;;;;;;;;;2.00;2.00;;;;;15.96;54.00;100086.72;4965698;28;50161;-72
2022/09/29 15:43:55;;;;;;;;;3.00;2.75;;;;;16.51;54.82;100155.75;4966277;28;49824;-72
2022/09/29 15:46:34;;;;;;;;;2.00;2.00;;;;;16.12;54.60;100074.16;4967554;28;49253;-71
2022/09/29 15:49:16;;;;;;;;;3.75;2.00;;;;;16.59;54.42;100167.09;4968637;28;49489;-72
2022/09/29 15:51:52;;;;;;;;;1.00;1.00;;;;;16.10;53.98;100115.66;4968481;28;50035;-74
2022/09/29 15:54:18;;;;;;;;;1.50;1.25;;;;;16.21;53.13;100151.72;4968445;28;49427;-73
2022/09/29 15:59:42;;;;;;;;;2.00;2.00;;;;;16.02;53.66;100176.66;4968605;28;49715;-73
2022/09/29 16:02:16;;;;;;;;;2.50;2.00;;;;;14.99;53.40;100033.88;4958844;28;49983;-74
2022/09/29 16:04:45;;;;;;;;;3.00;2.00;;;;;14.69;54.31;100005.09;4954001;28;49990;-74
2022/09/29 16:07:22;;;;;;;;;1.25;1.25;;;;;15.50;54.29;100169.16;4952729;28;49772;-78
2022/09/29 16:09:50;;;;;;;;;1.25;1.25;;;;;15.27;55.15;100158.78;4950757;28;50003;-77
2022/09/29 16:12:19;;;;;;;;;1.00;1.00;;;;;14.80;55.00;100112.44;4953873;28;49965;-72
2022/09/29 16:14:45;;;;;;;;;2.75;2.00;;;;;14.96;55.04;100139.66;4953912;28;49958;-72
2022/09/29 16:17:11;;;;;;;;;3.00;1.00;;;;;15.33;54.85;100221.31;4952116;28;50112;-74
2022/09/29 16:19:41;;;;;;;;;2.25;2.00;;;;;15.15;56.24;100201.16;4952752;28;50060;-75
2022/09/29 16:22:07;;;;;;;;;1.25;1.25;;;;;14.54;56.50;100107.31;4953731;28;50062;-76
2022/09/29 16:24:35;;;;;;;;;2.00;2.00;;;;;14.58;55.33;100129.31;4952365;28;49960;-73
2022/09/29 16:27:00;;;;;;;;;3.00;2.00;;;;;15.07;55.41;100232.09;4953929;28;49809;-73
2022/09/29 16:29:29;;;;;;;;;0.00;0.00;;;;;15.00;55.16;100236.53;4954234;28;50421;-74
2022/09/29 16:31:56;;;;;;;;;1.25;1.25;;;;;14.93;55.13;100240.06;4953452;28;50699;-74
2022/09/29 16:34:23;;;;;;;;;1.75;1.75;;;;;14.89;56.46;100241.88;4953722;28;49736;-76
2022/09/29 16:37:03;;;;;;;;;1.25;1.25;;;;;14.32;55.56;100167.25;4953402;28;49653;-74
2022/09/29 16:39:41;;;;;;;;;1.00;1.00;;;;;14.30;56.37;100178.69;4953729;28;49874;-71
2022/09/29 16:42:25;;;;;;;;;2.25;1.75;;;;;14.45;56.36;100205.06;4953654;28;49766;-73
2022/09/29 16:44:53;;;;;;;;;0.75;0.75;;;;;13.97;55.59;100140.06;4953656;28;49802;-75
2022/09/29 16:47:27;;;;;;;;;2.00;2.00;;;;;14.07;56.46;100170.84;4953670;28;49978;-72
2022/09/29 16:49:58;;;;;;;;;1.50;1.50;;;;;14.33;59.04;100226.22;4953490;28;49680;-69
2022/09/29 16:52:41;;;;;;;;;2.00;2.00;;;;;14.48;58.37;100260.53;4951109;28;49827;-73
2022/09/29 16:55:19;;;;;;;;;5.00;4.00;;;;;14.43;57.81;100266.66;4953198;28;49922;-71
2022/09/29 16:58:03;;;;;;;;;3.00;2.00;;;;;14.38;56.64;100274.63;4953338;28;49890;-72
2022/09/29 17:00:29;;;;;;;;;1.00;1.00;;;;;13.77;58.04;100184.09;4953675;28;49973;-72
2022/09/29 17:02:56;;;;;;;;;2.75;2.75;;;;;13.41;58.16;100138.41;4967944;28;52459;-73
2022/09/29 17:05:24;;;;;;;;;3.00;3.00;;;;;13.07;58.35;100075.16;4953367;28;49746;-71
2022/09/29 17:07:58;;;;;;;;;2.00;2.00;;;;;13.51;58.17;100158.66;4953255;28;49742;-80
2022/09/29 17:10:24;;;;;;;;;3.25;2.25;;;;;13.75;61.33;100240.38;4951335;28;50087;-75
2022/09/29 17:12:49;;;;;;;;;7.25;3.50;;;;;12.88;60.95;100094.47;4953233;28;50772;-72
2022/09/29 17:15:16;;;;;;;;;2.25;2.25;;;;;13.64;61.57;100247.41;4952208;28;49982;-73
2022/09/29 17:17:47;;;;;;;;;2.00;2.00;;;;;13.39;62.60;100222.78;4953611;28;49920;-77
2022/09/29 17:20:15;;;;;;;;;3.00;3.00;;;;;13.51;63.68;100264.13;4953472;28;49750;-79
2022/09/29 17:22:41;;;;;;;;;5.00;5.00;;;;;13.22;64.10;100221.91;4953073;28;50077;-72
2022/09/29 17:25:09;;;;;;;;;3.00;3.00;;;;;13.58;64.52;100297.50;4953031;28;49918;-82
2022/09/29 17:30:22;;;;;;;;;5.25;5.25;;;;;13.54;66.61;100316.88;4953761;28;50165;-73
2022/09/29 17:32:57;;;;;;;;;4.75;4.50;;;;;12.66;66.69;100179.59;4953059;28;50990;-75
2022/09/29 17:35:35;;;;;;;;;5.00;5.00;;;;;13.10;67.09;100270.16;4954124;28;50192;-83
2022/09/29 17:38:01;;;;;;;;;5.25;5.25;;;;;12.75;66.72;100241.06;4952686;28;49944;-81
2022/09/29 17:40:34;;;;;;;;;6.00;6.00;;;;;13.25;67.01;100334.38;4952000;28;51274;-77
2022/09/29 17:43:00;;;;;;;;;5.00;4.00;;;;;12.70;67.47;100252.44;4954924;28;50427;-75